sensor_id;sensor_type;location;lat;lon;timestamp;temperature;humidity
20345;DHT22;10330;48.816;9.278;2023-07-30T00:00:39;17.90;99.90
20345;DHT22;10330;48.816;9.278;2023-07-30T00:03:05;17.90;99.90
20345;DHT22;10330;48.816;9.278;2023-07-30T00:05:32;17.80;99.90
20345;DHT22;10330;48.816;9.278;2023-07-30T00:07:58;17.70;99.90
20345;DHT22;10330;48.816;9.278;2023-07-30T00:10:24;17.70;99.90
20345;DHT22;10330;48.816;9.278;2023-07-30T00:12:50;17.80;99.90
20345;DHT22;10330;48.816;9.278;2023-07-30T00:15:16;17.80;99.90
20345;DHT22;10330;48.816;9.278;2023-07-30T00:17:42;17.70;99.90
20345;DHT22;10330;48.816;9.278;2023-07-30T00:20:09;17.70;99.90
20345;DHT22;10330;48.816;9.278;2023-07-30T00:22:35;17.70;99.90
20345;DHT22;10330;48.816;9.278;2023-07-30T00:25:01;17.80;99.90
20345;DHT22;10330;48.816;9.278;2023-07-30T00:27:27;17.70;99.90
20345;DHT22;10330;48.816;9.278;2023-07-30T00:29:53;17.70;99.90
20345;DHT22;10330;48.816;9.278;2023-07-30T00:32:19;17.50;99.90
20345;DHT22;10330;48.816;9.278;2023-07-30T00:34:46;17.40;99.90
20345;DHT22;10330;48.816;9.278;2023-07-30T00:37:12;17.50;99.90
20345;DHT22;10330;48.816;9.278;2023-07-30T00:39:38;17.50;99.90
20345;DHT22;10330;48.816;9.278;2023-07-30T00:42:07;17.50;99.90
20345;DHT22;10330;48.816;9.278;2023-07-30T00:44:33;17.60;99.90
20345;DHT22;10330;48.816;9.278;2023-07-30T00:47:00;17.50;99.90
20345;DHT22;10330;48.816;9.278;2023-07-30T00:49:26;17.50;99.90
20345;DHT22;10330;48.816;9.278;2023-07-30T00:51:53;17.60;99.90
20345;DHT22;10330;48.816;9.278;2023-07-30T00:54:23;17.70;99.90
20345;DHT22;10330;48.816;9.278;2023-07-30T00:56:51;17.70;99.90
20345;DHT22;10330;48.816;9.278;2023-07-30T00:59:20;17.70;99.90
20345;DHT22;10330;48.816;9.278;2023-07-30T01:01:46;17.70;99.90
20345;DHT22;10330;48.816;9.278;2023-07-30T01:04:15;17.80;99.90
20345;DHT22;10330;48.816;9.278;2023-07-30T01:06:41;17.70;99.90
20345;DHT22;10330;48.816;9.278;2023-07-30T01:09:08;17.80;99.90
20345;DHT22;10330;48.816;9.278;2023-07-30T01:11:35;17.80;99.90
20345;DHT22;10330;48.816;9.278;2023-07-30T01:14:03;17.90;99.90
20345;DHT22;10330;48.816;9.278;2023-07-30T01:16:33;17.90;99.90
20345;DHT22;10330;48.816;9.278;2023-07-30T01:18:59;17.90;99.90
20345;DHT22;10330;48.816;9.278;2023-07-30T01:21:34;17.90;99.90
20345;DHT22;10330;48.816;9.278;2023-07-30T01:24:00;17.90;99.90
20345;DHT22;10330;48.816;9.278;2023-07-30T01:26:40;18.00;99.90
20345;DHT22;10330;48.816;9.278;2023-07-30T01:29:28;18.00;99.90
20345;DHT22;10330;48.816;9.278;2023-07-30T01:31:56;18.00;99.90
20345;DHT22;10330;48.816;9.278;2023-07-30T01:34:24;18.00;99.90
20345;DHT22;10330;48.816;9.278;2023-07-30T01:36:53;18.00;99.90
20345;DHT22;10330;48.816;9.278;2023-07-30T01:39:20;18.00;99.90
20345;DHT22;10330;48.816;9.278;2023-07-30T01:41:47;18.00;99.90
20345;DHT22;10330;48.816;9.278;2023-07-30T01:44:13;18.10;99.90
20345;DHT22;10330;48.816;9.278;2023-07-30T01:46:39;18.10;99.90
20345;DHT22;10330;48.816;9.278;2023-07-30T01:49:05;18.10;99.90
20345;DHT22;10330;48.816;9.278;2023-07-30T01:51:31;18.10;99.90
20345;DHT22;10330;48.816;9.278;2023-07-30T01:53:58;18.00;99.90
20345;DHT22;10330;48.816;9.278;2023-07-30T01:56:24;18.10;99.90
20345;DHT22;10330;48.816;9.278;2023-07-30T01:58:50;18.10;99.90
20345;DHT22;10330;48.816;9.278;2023-07-30T02:01:16;18.10;99.90
20345;DHT22;10330;48.816;9.278;2023-07-30T02:03:42;18.00;99.90
20345;DHT22;10330;48.816;9.278;2023-07-30T02:06:08;18.10;99.90
20345;DHT22;10330;48.816;9.278;2023-07-30T02:08:34;18.00;99.90
20345;DHT22;10330;48.816;9.278;2023-07-30T02:11:01;18.10;99.90
20345;DHT22;10330;48.816;9.278;2023-07-30T02:13:27;18.10;99.90
20345;DHT22;10330;48.816;9.278;2023-07-30T02:15:53;18.10;99.90
20345;DHT22;10330;48.816;9.278;2023-07-30T02:18:19;18.10;99.90
20345;DHT22;10330;48.816;9.278;2023-07-30T02:20:46;18.10;99.90
20345;DHT22;10330;48.816;9.278;2023-07-30T02:23:14;18.10;99.90
20345;DHT22;10330;48.816;9.278;2023-07-30T02:25:40;18.20;99.90
20345;DHT22;10330;48.816;9.278;2023-07-30T02:28:06;18.10;99.90
20345;DHT22;10330;48.816;9.278;2023-07-30T02:30:33;18.20;99.90
20345;DHT22;10330;48.816;9.278;2023-07-30T02:32:59;18.10;99.90
20345;DHT22;10330;48.816;9.278;2023-07-30T02:35:26;18.20;99.90
20345;DHT22;10330;48.816;9.278;2023-07-30T02:37:52;18.20;99.90
20345;DHT22;10330;48.816;9.278;2023-07-30T02:40:18;18.10;99.90
20345;DHT22;10330;48.816;9.278;2023-07-30T02:42:45;18.10;99.90
20345;DHT22;10330;48.816;9.278;2023-07-30T02:45:11;18.20;99.90
20345;DHT22;10330;48.816;9.278;2023-07-30T02:47:37;18.10;99.90
20345;DHT22;10330;48.816;9.278;2023-07-30T02:50:04;18.10;99.90
20345;DHT22;10330;48.816;9.278;2023-07-30T02:52:32;18.10;99.90
20345;DHT22;10330;48.816;9.278;2023-07-30T02:54:58;18.10;99.90
20345;DHT22;10330;48.816;9.278;2023-07-30T02:57:24;18.10;99.90
20345;DHT22;10330;48.816;9.278;2023-07-30T02:59:50;18.10;99.90
20345;DHT22;10330;48.816;9.278;2023-07-30T03:02:16;18.10;99.90
20345;DHT22;10330;48.816;9.278;2023-07-30T03:04:43;18.20;99.90
20345;DHT22;10330;48.816;9.278;2023-07-30T03:07:10;18.10;99.90
20345;DHT22;10330;48.816;9.278;2023-07-30T03:09:36;18.10;99.90
20345;DHT22;10330;48.816;9.278;2023-07-30T03:12:02;18.00;99.90
20345;DHT22;10330;48.816;9.278;2023-07-30T03:14:29;18.00;99.90
20345;DHT22;10330;48.816;9.278;2023-07-30T03:16:57;18.00;99.90
20345;DHT22;10330;48.816;9.278;2023-07-30T03:19:23;18.00;99.90
20345;DHT22;10330;48.816;9.278;2023-07-30T03:21:49;18.00;99.90
20345;DHT22;10330;48.816;9.278;2023-07-30T03:24:16;17.90;99.90
20345;DHT22;10330;48.816;9.278;2023-07-30T03:26:42;17.90;99.90
20345;DHT22;10330;48.816;9.278;2023-07-30T03:29:08;17.90;99.90
20345;DHT22;10330;48.816;9.278;2023-07-30T03:31:34;17.90;99.90
20345;DHT22;10330;48.816;9.278;2023-07-30T03:34:00;17.90;99.90
20345;DHT22;10330;48.816;9.278;2023-07-30T03:36:27;17.90;99.90
20345;DHT22;10330;48.816;9.278;2023-07-30T03:38:53;17.90;99.90
20345;DHT22;10330;48.816;9.278;2023-07-30T03:41:19;17.90;99.90
20345;DHT22;10330;48.816;9.278;2023-07-30T03:43:45;17.90;99.90
20345;DHT22;10330;48.816;9.278;2023-07-30T03:46:12;17.90;99.90
20345;DHT22;10330;48.816;9.278;2023-07-30T03:48:38;17.80;99.90
20345;DHT22;10330;48.816;9.278;2023-07-30T03:51:04;17.80;99.90
20345;DHT22;10330;48.816;9.278;2023-07-30T03:53:30;17.90;99.90
20345;DHT22;10330;48.816;9.278;2023-07-30T03:55:56;17.90;99.90
20345;DHT22;10330;48.816;9.278;2023-07-30T03:58:23;17.90;99.90
20345;DHT22;10330;48.816;9.278;2023-07-30T04:00:49;17.90;99.90
20345;DHT22;10330;48.816;9.278;2023-07-30T04:03:15;17.90;99.90
20345;DHT22;10330;48.816;9.278;2023-07-30T04:05:41;17.90;99.90
20345;DHT22;10330;48.816;9.278;2023-07-30T04:08:07;17.90;99.90
20345;DHT22;10330;48.816;9.278;2023-07-30T04:10:33;17.90;99.90
20345;DHT22;10330;48.816;9.278;2023-07-30T04:13:00;17.90;99.90
20345;DHT22;10330;48.816;9.278;2023-07-30T04:15:26;18.00;99.90
20345;DHT22;10330;48.816;9.278;2023-07-30T04:17:52;17.90;99.90
20345;DHT22;10330;48.816;9.278;2023-07-30T04:20:18;18.00;99.90
20345;DHT22;10330;48.816;9.278;2023-07-30T04:22:44;18.00;99.90
20345;DHT22;10330;48.816;9.278;2023-07-30T04:25:10;18.00;99.90
20345;DHT22;10330;48.816;9.278;2023-07-30T04:27:37;18.00;99.90
20345;DHT22;10330;48.816;9.278;2023-07-30T04:30:05;18.00;99.90
20345;DHT22;10330;48.816;9.278;2023-07-30T04:32:31;18.00;99.90
20345;DHT22;10330;48.816;9.278;2023-07-30T04:34:58;17.90;99.90
20345;DHT22;10330;48.816;9.278;2023-07-30T04:37:24;18.00;99.90
20345;DHT22;10330;48.816;9.278;2023-07-30T04:39:52;18.00;99.90
20345;DHT22;10330;48.816;9.278;2023-07-30T04:42:18;18.00;99.90
20345;DHT22;10330;48.816;9.278;2023-07-30T04:44:44;18.00;99.90
20345;DHT22;10330;48.816;9.278;2023-07-30T04:47:14;17.90;99.90
20345;DHT22;10330;48.816;9.278;2023-07-30T04:49:40;17.90;99.90
20345;DHT22;10330;48.816;9.278;2023-07-30T04:52:07;17.90;99.90
20345;DHT22;10330;48.816;9.278;2023-07-30T04:54:34;18.00;99.90
20345;DHT22;10330;48.816;9.278;2023-07-30T04:57:02;17.90;99.90
20345;DHT22;10330;48.816;9.278;2023-07-30T04:59:29;17.90;99.90
20345;DHT22;10330;48.816;9.278;2023-07-30T05:01:55;18.00;99.90
20345;DHT22;10330;48.816;9.278;2023-07-30T05:04:21;18.00;99.90
20345;DHT22;10330;48.816;9.278;2023-07-30T05:06:48;18.10;99.90
20345;DHT22;10330;48.816;9.278;2023-07-30T05:09:14;18.10;99.90
20345;DHT22;10330;48.816;9.278;2023-07-30T05:11:40;18.10;99.90
20345;DHT22;10330;48.816;9.278;2023-07-30T05:14:06;18.10;99.90
20345;DHT22;10330;48.816;9.278;2023-07-30T05:16:33;18.00;99.90
20345;DHT22;10330;48.816;9.278;2023-07-30T05:18:59;18.10;99.90
20345;DHT22;10330;48.816;9.278;2023-07-30T05:21:25;18.10;99.90
20345;DHT22;10330;48.816;9.278;2023-07-30T05:23:51;18.10;99.90
20345;DHT22;10330;48.816;9.278;2023-07-30T05:26:17;18.10;99.90
20345;DHT22;10330;48.816;9.278;2023-07-30T05:28:43;18.10;99.90
20345;DHT22;10330;48.816;9.278;2023-07-30T05:31:09;18.10;99.90
20345;DHT22;10330;48.816;9.278;2023-07-30T05:33:35;18.10;99.90
20345;DHT22;10330;48.816;9.278;2023-07-30T05:36:02;18.10;99.90
20345;DHT22;10330;48.816;9.278;2023-07-30T05:38:28;18.00;99.90
20345;DHT22;10330;48.816;9.278;2023-07-30T05:40:54;18.00;99.90
20345;DHT22;10330;48.816;9.278;2023-07-30T05:43:20;18.10;99.90
20345;DHT22;10330;48.816;9.278;2023-07-30T05:45:47;18.10;99.90
20345;DHT22;10330;48.816;9.278;2023-07-30T05:48:13;18.10;99.90
20345;DHT22;10330;48.816;9.278;2023-07-30T05:50:39;18.10;99.90
20345;DHT22;10330;48.816;9.278;2023-07-30T05:53:05;18.10;99.90
20345;DHT22;10330;48.816;9.278;2023-07-30T05:55:31;18.10;99.90
20345;DHT22;10330;48.816;9.278;2023-07-30T05:57:58;18.10;99.90
20345;DHT22;10330;48.816;9.278;2023-07-30T06:00:24;18.10;99.90
20345;DHT22;10330;48.816;9.278;2023-07-30T06:02:50;18.10;99.90
20345;DHT22;10330;48.816;9.278;2023-07-30T06:05:16;18.10;99.90
20345;DHT22;10330;48.816;9.278;2023-07-30T06:07:42;18.10;99.90
20345;DHT22;10330;48.816;9.278;2023-07-30T06:10:08;18.10;99.90
20345;DHT22;10330;48.816;9.278;2023-07-30T06:12:34;18.10;99.90
20345;DHT22;10330;48.816;9.278;2023-07-30T06:15:01;18.10;99.90
20345;DHT22;10330;48.816;9.278;2023-07-30T06:17:27;18.20;99.90
20345;DHT22;10330;48.816;9.278;2023-07-30T06:19:53;18.20;99.90
20345;DHT22;10330;48.816;9.278;2023-07-30T06:22:19;18.30;99.90
20345;DHT22;10330;48.816;9.278;2023-07-30T06:24:45;18.30;99.90
20345;DHT22;10330;48.816;9.278;2023-07-30T06:27:11;18.40;99.90
20345;DHT22;10330;48.816;9.278;2023-07-30T06:29:38;18.40;99.90
20345;DHT22;10330;48.816;9.278;2023-07-30T06:32:05;18.40;99.90
20345;DHT22;10330;48.816;9.278;2023-07-30T06:34:31;18.50;99.90
20345;DHT22;10330;48.816;9.278;2023-07-30T06:36:57;18.50;99.90
20345;DHT22;10330;48.816;9.278;2023-07-30T06:39:23;18.50;99.90
20345;DHT22;10330;48.816;9.278;2023-07-30T06:41:49;18.60;99.90
20345;DHT22;10330;48.816;9.278;2023-07-30T06:44:17;18.60;99.90
20345;DHT22;10330;48.816;9.278;2023-07-30T06:46:43;18.70;99.90
20345;DHT22;10330;48.816;9.278;2023-07-30T06:49:10;18.80;99.90
20345;DHT22;10330;48.816;9.278;2023-07-30T06:51:38;18.80;99.90
20345;DHT22;10330;48.816;9.278;2023-07-30T06:54:04;19.00;99.90
20345;DHT22;10330;48.816;9.278;2023-07-30T06:56:31;19.30;99.90
20345;DHT22;10330;48.816;9.278;2023-07-30T06:58:57;19.40;99.90
20345;DHT22;10330;48.816;9.278;2023-07-30T07:01:23;19.40;99.90
20345;DHT22;10330;48.816;9.278;2023-07-30T07:03:49;19.50;99.90
20345;DHT22;10330;48.816;9.278;2023-07-30T07:06:16;19.50;99.90
20345;DHT22;10330;48.816;9.278;2023-07-30T07:08:42;19.40;99.90
20345;DHT22;10330;48.816;9.278;2023-07-30T07:11:08;19.40;99.90
20345;DHT22;10330;48.816;9.278;2023-07-30T07:13:35;19.30;99.90
20345;DHT22;10330;48.816;9.278;2023-07-30T07:16:01;19.30;99.90
20345;DHT22;10330;48.816;9.278;2023-07-30T07:18:29;19.20;99.90
20345;DHT22;10330;48.816;9.278;2023-07-30T07:20:57;19.10;99.90
20345;DHT22;10330;48.816;9.278;2023-07-30T07:23:23;19.10;99.90
20345;DHT22;10330;48.816;9.278;2023-07-30T07:25:50;19.10;99.90
20345;DHT22;10330;48.816;9.278;2023-07-30T07:28:17;19.10;99.90
20345;DHT22;10330;48.816;9.278;2023-07-30T07:30:44;19.00;99.90
20345;DHT22;10330;48.816;9.278;2023-07-30T07:33:11;19.10;99.90
20345;DHT22;10330;48.816;9.278;2023-07-30T07:35:40;19.10;99.90
20345;DHT22;10330;48.816;9.278;2023-07-30T07:38:06;19.10;99.90
20345;DHT22;10330;48.816;9.278;2023-07-30T07:40:39;19.10;99.90
20345;DHT22;10330;48.816;9.278;2023-07-30T07:43:06;19.10;99.90
20345;DHT22;10330;48.816;9.278;2023-07-30T07:45:33;19.10;99.90
20345;DHT22;10330;48.816;9.278;2023-07-30T07:47:59;19.10;99.90
20345;DHT22;10330;48.816;9.278;2023-07-30T07:50:25;19.00;99.90
20345;DHT22;10330;48.816;9.278;2023-07-30T07:52:52;19.00;99.90
20345;DHT22;10330;48.816;9.278;2023-07-30T07:55:18;18.90;99.90
20345;DHT22;10330;48.816;9.278;2023-07-30T07:57:44;18.60;99.90
20345;DHT22;10330;48.816;9.278;2023-07-30T08:00:11;18.40;99.90
20345;DHT22;10330;48.816;9.278;2023-07-30T08:02:41;18.40;99.90
20345;DHT22;10330;48.816;9.278;2023-07-30T08:05:07;18.40;99.90
20345;DHT22;10330;48.816;9.278;2023-07-30T08:07:34;18.40;99.90
20345;DHT22;10330;48.816;9.278;2023-07-30T08:10:00;18.50;99.90
20345;DHT22;10330;48.816;9.278;2023-07-30T08:12:26;18.60;99.90
20345;DHT22;10330;48.816;9.278;2023-07-30T08:14:53;18.80;99.90
20345;DHT22;10330;48.816;9.278;2023-07-30T08:17:19;18.80;99.90
20345;DHT22;10330;48.816;9.278;2023-07-30T08:19:46;18.90;99.90
20345;DHT22;10330;48.816;9.278;2023-07-30T08:22:13;18.90;99.90
20345;DHT22;10330;48.816;9.278;2023-07-30T08:24:39;19.10;99.90
20345;DHT22;10330;48.816;9.278;2023-07-30T08:27:05;19.20;99.90
20345;DHT22;10330;48.816;9.278;2023-07-30T08:29:31;19.20;99.90
20345;DHT22;10330;48.816;9.278;2023-07-30T08:31:58;19.20;99.90
20345;DHT22;10330;48.816;9.278;2023-07-30T08:34:24;19.30;99.90
20345;DHT22;10330;48.816;9.278;2023-07-30T08:36:50;19.40;99.90
20345;DHT22;10330;48.816;9.278;2023-07-30T08:39:17;19.60;99.90
20345;DHT22;10330;48.816;9.278;2023-07-30T08:41:44;19.80;99.90
20345;DHT22;10330;48.816;9.278;2023-07-30T08:44:11;19.90;99.90
20345;DHT22;10330;48.816;9.278;2023-07-30T08:46:38;20.20;99.90
20345;DHT22;10330;48.816;9.278;2023-07-30T08:49:04;20.40;99.90
20345;DHT22;10330;48.816;9.278;2023-07-30T08:51:31;20.50;99.90
20345;DHT22;10330;48.816;9.278;2023-07-30T08:53:58;20.70;99.90
20345;DHT22;10330;48.816;9.278;2023-07-30T08:56:26;20.50;99.90
20345;DHT22;10330;48.816;9.278;2023-07-30T08:58:53;20.50;99.90
20345;DHT22;10330;48.816;9.278;2023-07-30T09:01:25;20.40;99.90
20345;DHT22;10330;48.816;9.278;2023-07-30T09:03:53;20.50;99.90
20345;DHT22;10330;48.816;9.278;2023-07-30T09:06:20;20.60;99.90
20345;DHT22;10330;48.816;9.278;2023-07-30T09:08:46;20.70;99.90
20345;DHT22;10330;48.816;9.278;2023-07-30T09:11:12;20.80;99.90
20345;DHT22;10330;48.816;9.278;2023-07-30T09:13:40;20.70;99.90
20345;DHT22;10330;48.816;9.278;2023-07-30T09:16:11;20.50;99.90
20345;DHT22;10330;48.816;9.278;2023-07-30T09:18:45;20.50;99.90
20345;DHT22;10330;48.816;9.278;2023-07-30T09:21:12;20.50;99.90
20345;DHT22;10330;48.816;9.278;2023-07-30T09:23:40;20.50;99.90
20345;DHT22;10330;48.816;9.278;2023-07-30T09:26:07;20.40;99.90
20345;DHT22;10330;48.816;9.278;2023-07-30T09:28:33;20.40;99.90
20345;DHT22;10330;48.816;9.278;2023-07-30T09:31:03;20.50;99.90
20345;DHT22;10330;48.816;9.278;2023-07-30T09:33:31;20.60;99.90
20345;DHT22;10330;48.816;9.278;2023-07-30T09:36:02;20.50;99.90
20345;DHT22;10330;48.816;9.278;2023-07-30T09:38:28;20.50;99.90
20345;DHT22;10330;48.816;9.278;2023-07-30T09:41:02;20.60;99.90
20345;DHT22;10330;48.816;9.278;2023-07-30T09:43:31;20.70;99.90
20345;DHT22;10330;48.816;9.278;2023-07-30T09:46:03;20.80;99.90
20345;DHT22;10330;48.816;9.278;2023-07-30T09:48:31;20.80;99.90
20345;DHT22;10330;48.816;9.278;2023-07-30T09:51:02;20.70;99.90
20345;DHT22;10330;48.816;9.278;2023-07-30T09:53:33;20.40;99.90
20345;DHT22;10330;48.816;9.278;2023-07-30T09:56:05;20.40;99.90
20345;DHT22;10330;48.816;9.278;2023-07-30T09:58:34;20.50;99.90
20345;DHT22;10330;48.816;9.278;2023-07-30T10:01:04;20.50;99.90
20345;DHT22;10330;48.816;9.278;2023-07-30T10:03:32;20.30;99.90
20345;DHT22;10330;48.816;9.278;2023-07-30T10:06:03;20.30;99.90
20345;DHT22;10330;48.816;9.278;2023-07-30T10:08:33;20.30;99.90
20345;DHT22;10330;48.816;9.278;2023-07-30T10:11:01;20.40;99.90
20345;DHT22;10330;48.816;9.278;2023-07-30T10:13:30;20.60;99.90
20345;DHT22;10330;48.816;9.278;2023-07-30T10:15:56;20.80;99.90
20345;DHT22;10330;48.816;9.278;2023-07-30T10:18:33;20.80;99.90
20345;DHT22;10330;48.816;9.278;2023-07-30T10:21:00;21.00;99.90
20345;DHT22;10330;48.816;9.278;2023-07-30T10:23:29;21.20;99.90
20345;DHT22;10330;48.816;9.278;2023-07-30T10:25:58;21.10;99.90
20345;DHT22;10330;48.816;9.278;2023-07-30T10:28:35;21.00;99.90
20345;DHT22;10330;48.816;9.278;2023-07-30T10:31:07;21.00;99.90
20345;DHT22;10330;48.816;9.278;2023-07-30T10:33:49;21.10;99.90
20345;DHT22;10330;48.816;9.278;2023-07-30T10:36:33;21.30;99.90
20345;DHT22;10330;48.816;9.278;2023-07-30T10:39:15;21.50;99.90
20345;DHT22;10330;48.816;9.278;2023-07-30T10:41:47;21.70;99.90
20345;DHT22;10330;48.816;9.278;2023-07-30T10:44:24;21.60;99.90
20345;DHT22;10330;48.816;9.278;2023-07-30T10:46:53;21.60;99.90
20345;DHT22;10330;48.816;9.278;2023-07-30T10:49:19;21.70;99.90
20345;DHT22;10330;48.816;9.278;2023-07-30T10:51:45;21.60;99.90
20345;DHT22;10330;48.816;9.278;2023-07-30T10:54:12;21.60;99.90
20345;DHT22;10330;48.816;9.278;2023-07-30T10:56:39;21.50;99.90
20345;DHT22;10330;48.816;9.278;2023-07-30T10:59:06;21.50;99.90
20345;DHT22;10330;48.816;9.278;2023-07-30T11:01:40;21.70;99.90
20345;DHT22;10330;48.816;9.278;2023-07-30T11:04:18;21.80;99.90
20345;DHT22;10330;48.816;9.278;2023-07-30T11:06:50;21.80;99.90
20345;DHT22;10330;48.816;9.278;2023-07-30T11:09:27;22.00;99.90
20345;DHT22;10330;48.816;9.278;2023-07-30T11:11:55;22.10;99.90
20345;DHT22;10330;48.816;9.278;2023-07-30T11:14:23;22.20;99.90
20345;DHT22;10330;48.816;9.278;2023-07-30T11:16:59;22.30;99.90
20345;DHT22;10330;48.816;9.278;2023-07-30T11:19:29;22.30;99.90
20345;DHT22;10330;48.816;9.278;2023-07-30T11:21:57;22.20;99.90
20345;DHT22;10330;48.816;9.278;2023-07-30T11:24:37;22.00;99.90
20345;DHT22;10330;48.816;9.278;2023-07-30T11:27:03;21.90;99.90
20345;DHT22;10330;48.816;9.278;2023-07-30T11:29:29;21.80;99.90
20345;DHT22;10330;48.816;9.278;2023-07-30T11:31:57;21.80;99.90
20345;DHT22;10330;48.816;9.278;2023-07-30T11:34:26;21.90;99.90
20345;DHT22;10330;48.816;9.278;2023-07-30T11:36:53;22.00;99.90
20345;DHT22;10330;48.816;9.278;2023-07-30T11:39:20;22.00;99.90
20345;DHT22;10330;48.816;9.278;2023-07-30T11:41:47;21.80;99.90
20345;DHT22;10330;48.816;9.278;2023-07-30T11:44:36;21.70;99.90
20345;DHT22;10330;48.816;9.278;2023-07-30T11:47:04;21.90;99.90
20345;DHT22;10330;48.816;9.278;2023-07-30T11:49:31;21.80;99.90
20345;DHT22;10330;48.816;9.278;2023-07-30T11:52:10;21.90;99.90
20345;DHT22;10330;48.816;9.278;2023-07-30T11:54:37;21.90;99.90
20345;DHT22;10330;48.816;9.278;2023-07-30T11:57:03;22.10;99.90
20345;DHT22;10330;48.816;9.278;2023-07-30T11:59:31;22.30;99.90
20345;DHT22;10330;48.816;9.278;2023-07-30T12:01:57;22.60;99.90
20345;DHT22;10330;48.816;9.278;2023-07-30T12:04:24;22.30;99.90
20345;DHT22;10330;48.816;9.278;2023-07-30T12:06:52;22.60;99.90
20345;DHT22;10330;48.816;9.278;2023-07-30T12:09:23;22.90;99.90
20345;DHT22;10330;48.816;9.278;2023-07-30T12:11:54;22.90;99.90
20345;DHT22;10330;48.816;9.278;2023-07-30T12:14:44;22.40;99.90
20345;DHT22;10330;48.816;9.278;2023-07-30T12:17:10;22.70;99.90
20345;DHT22;10330;48.816;9.278;2023-07-30T12:19:41;22.50;99.90
20345;DHT22;10330;48.816;9.278;2023-07-30T12:22:07;22.50;99.90
20345;DHT22;10330;48.816;9.278;2023-07-30T12:24:34;22.30;99.90
20345;DHT22;10330;48.816;9.278;2023-07-30T12:27:00;22.20;99.90
20345;DHT22;10330;48.816;9.278;2023-07-30T12:29:27;22.80;99.90
20345;DHT22;10330;48.816;9.278;2023-07-30T12:31:53;23.30;99.90
20345;DHT22;10330;48.816;9.278;2023-07-30T12:34:20;23.70;99.90
20345;DHT22;10330;48.816;9.278;2023-07-30T12:36:46;24.20;99.90
20345;DHT22;10330;48.816;9.278;2023-07-30T12:39:13;24.40;99.90
20345;DHT22;10330;48.816;9.278;2023-07-30T12:41:39;24.60;99.90
20345;DHT22;10330;48.816;9.278;2023-07-30T12:44:05;24.20;99.90
20345;DHT22;10330;48.816;9.278;2023-07-30T12:46:32;23.90;99.90
20345;DHT22;10330;48.816;9.278;2023-07-30T12:49:00;23.60;99.90
20345;DHT22;10330;48.816;9.278;2023-07-30T12:51:33;23.70;99.90
20345;DHT22;10330;48.816;9.278;2023-07-30T12:53:59;23.90;99.90
20345;DHT22;10330;48.816;9.278;2023-07-30T12:56:26;24.10;99.90
20345;DHT22;10330;48.816;9.278;2023-07-30T12:58:52;23.90;99.90
20345;DHT22;10330;48.816;9.278;2023-07-30T13:01:19;24.10;99.90
20345;DHT22;10330;48.816;9.278;2023-07-30T13:03:45;24.20;99.90
20345;DHT22;10330;48.816;9.278;2023-07-30T13:06:12;24.40;99.90
20345;DHT22;10330;48.816;9.278;2023-07-30T13:08:39;24.30;99.90
20345;DHT22;10330;48.816;9.278;2023-07-30T13:11:06;24.00;99.90
20345;DHT22;10330;48.816;9.278;2023-07-30T13:13:32;23.70;99.90
20345;DHT22;10330;48.816;9.278;2023-07-30T13:15:59;23.60;99.90
20345;DHT22;10330;48.816;9.278;2023-07-30T13:18:28;24.20;99.90
20345;DHT22;10330;48.816;9.278;2023-07-30T13:20:54;24.50;99.90
20345;DHT22;10330;48.816;9.278;2023-07-30T13:23:20;24.60;99.90
20345;DHT22;10330;48.816;9.278;2023-07-30T13:25:46;24.30;99.90
20345;DHT22;10330;48.816;9.278;2023-07-30T13:28:13;24.10;99.90
20345;DHT22;10330;48.816;9.278;2023-07-30T13:30:39;24.90;99.90
20345;DHT22;10330;48.816;9.278;2023-07-30T13:33:05;24.50;99.90
20345;DHT22;10330;48.816;9.278;2023-07-30T13:35:31;24.30;99.90
20345;DHT22;10330;48.816;9.278;2023-07-30T13:37:57;24.80;99.90
20345;DHT22;10330;48.816;9.278;2023-07-30T13:40:23;24.80;99.90
20345;DHT22;10330;48.816;9.278;2023-07-30T13:42:50;24.60;99.90
20345;DHT22;10330;48.816;9.278;2023-07-30T13:45:16;24.50;99.90
20345;DHT22;10330;48.816;9.278;2023-07-30T13:47:42;24.90;99.90
20345;DHT22;10330;48.816;9.278;2023-07-30T13:50:09;24.60;99.90
20345;DHT22;10330;48.816;9.278;2023-07-30T13:52:35;24.20;99.90
20345;DHT22;10330;48.816;9.278;2023-07-30T13:55:02;23.90;99.90
20345;DHT22;10330;48.816;9.278;2023-07-30T13:57:28;23.70;99.90
20345;DHT22;10330;48.816;9.278;2023-07-30T13:59:54;24.00;99.90
20345;DHT22;10330;48.816;9.278;2023-07-30T14:02:20;23.90;99.90
20345;DHT22;10330;48.816;9.278;2023-07-30T14:04:47;24.10;99.90
20345;DHT22;10330;48.816;9.278;2023-07-30T14:07:13;24.10;99.90
20345;DHT22;10330;48.816;9.278;2023-07-30T14:09:39;23.90;99.90
20345;DHT22;10330;48.816;9.278;2023-07-30T14:12:06;24.30;99.90
20345;DHT22;10330;48.816;9.278;2023-07-30T14:14:33;24.10;99.90
20345;DHT22;10330;48.816;9.278;2023-07-30T14:16:59;24.60;99.90
20345;DHT22;10330;48.816;9.278;2023-07-30T14:19:26;24.80;99.90
20345;DHT22;10330;48.816;9.278;2023-07-30T14:21:52;25.20;99.90
20345;DHT22;10330;48.816;9.278;2023-07-30T14:24:19;25.60;99.90
20345;DHT22;10330;48.816;9.278;2023-07-30T14:26:45;25.10;99.90
20345;DHT22;10330;48.816;9.278;2023-07-30T14:29:11;24.60;99.90
20345;DHT22;10330;48.816;9.278;2023-07-30T14:31:37;24.50;99.90
20345;DHT22;10330;48.816;9.278;2023-07-30T14:34:03;25.10;99.90
20345;DHT22;10330;48.816;9.278;2023-07-30T14:36:29;25.50;99.90
20345;DHT22;10330;48.816;9.278;2023-07-30T14:38:56;25.50;99.90
20345;DHT22;10330;48.816;9.278;2023-07-30T14:41:22;25.50;99.90
20345;DHT22;10330;48.816;9.278;2023-07-30T14:43:48;25.70;99.90
20345;DHT22;10330;48.816;9.278;2023-07-30T14:46:14;25.50;99.90
20345;DHT22;10330;48.816;9.278;2023-07-30T14:48:41;25.10;99.90
20345;DHT22;10330;48.816;9.278;2023-07-30T14:51:09;25.10;99.90
20345;DHT22;10330;48.816;9.278;2023-07-30T14:53:36;25.30;99.90
20345;DHT22;10330;48.816;9.278;2023-07-30T14:56:02;25.10;99.90
20345;DHT22;10330;48.816;9.278;2023-07-30T14:58:29;24.80;99.90
20345;DHT22;10330;48.816;9.278;2023-07-30T15:00:55;24.20;99.90
20345;DHT22;10330;48.816;9.278;2023-07-30T15:03:21;24.10;99.90
20345;DHT22;10330;48.816;9.278;2023-07-30T15:05:48;24.40;99.90
20345;DHT22;10330;48.816;9.278;2023-07-30T15:08:14;24.80;99.90
20345;DHT22;10330;48.816;9.278;2023-07-30T15:10:40;24.40;99.90
20345;DHT22;10330;48.816;9.278;2023-07-30T15:13:06;23.70;99.90
20345;DHT22;10330;48.816;9.278;2023-07-30T15:15:33;24.60;99.90
20345;DHT22;10330;48.816;9.278;2023-07-30T15:17:59;24.80;99.90
20345;DHT22;10330;48.816;9.278;2023-07-30T15:20:25;24.90;99.90
20345;DHT22;10330;48.816;9.278;2023-07-30T15:22:54;24.90;99.90
20345;DHT22;10330;48.816;9.278;2023-07-30T15:25:20;24.30;99.90
20345;DHT22;10330;48.816;9.278;2023-07-30T15:27:46;24.80;99.90
20345;DHT22;10330;48.816;9.278;2023-07-30T15:30:13;24.30;99.90